sensor_id;sensor_type;location;lat;lon;timestamp;P1;durP1;ratioP1;P2;durP2;ratioP2
9657;SDS011;4867;48.112;11.622;2023-03-01T00:01:30;20.87;;;18.10;;
9657;SDS011;4867;48.112;11.622;2023-03-01T00:03:58;20.20;;;18.10;;
9657;SDS011;4867;48.112;11.622;2023-03-01T00:06:26;19.97;;;17.70;;
9657;SDS011;4867;48.112;11.622;2023-03-01T00:08:54;19.77;;;17.37;;
9657;SDS011;4867;48.112;11.622;2023-03-01T00:11:23;21.37;;;18.17;;
9657;SDS011;4867;48.112;11.622;2023-03-01T00:13:53;19.53;;;17.40;;
9657;SDS011;4867;48.112;11.622;2023-03-01T00:19:11;19.87;;;17.77;;
9657;SDS011;4867;48.112;11.622;2023-03-01T00:21:40;21.97;;;18.67;;
9657;SDS011;4867;48.112;11.622;2023-03-01T00:24:08;21.23;;;18.30;;
9657;SDS011;4867;48.112;11.622;2023-03-01T00:26:35;20.00;;;17.90;;
9657;SDS011;4867;48.112;11.622;2023-03-01T00:29:03;20.23;;;18.13;;
9657;SDS011;4867;48.112;11.622;2023-03-01T00:31:31;20.03;;;17.60;;
9657;SDS011;4867;48.112;11.622;2023-03-01T00:34:00;20.80;;;18.60;;
9657;SDS011;4867;48.112;11.622;2023-03-01T00:36:30;20.17;;;17.90;;
9657;SDS011;4867;48.112;11.622;2023-03-01T00:39:00;21.67;;;18.20;;
9657;SDS011;4867;48.112;11.622;2023-03-01T00:41:29;22.20;;;18.33;;
9657;SDS011;4867;48.112;11.622;2023-03-01T00:43:57;20.20;;;18.00;;
9657;SDS011;4867;48.112;11.622;2023-03-01T00:46:25;21.53;;;18.47;;
9657;SDS011;4867;48.112;11.622;2023-03-01T00:48:53;20.73;;;18.50;;
9657;SDS011;4867;48.112;11.622;2023-03-01T00:51:22;21.30;;;18.13;;
9657;SDS011;4867;48.112;11.622;2023-03-01T00:53:56;20.10;;;17.90;;
9657;SDS011;4867;48.112;11.622;2023-03-01T00:56:25;22.57;;;19.37;;
9657;SDS011;4867;48.112;11.622;2023-03-01T00:58:52;19.40;;;17.33;;
9657;SDS011;4867;48.112;11.622;2023-03-01T01:01:21;21.50;;;18.13;;
9657;SDS011;4867;48.112;11.622;2023-03-01T01:03:51;22.83;;;18.60;;
9657;SDS011;4867;48.112;11.622;2023-03-01T01:06:27;20.30;;;18.20;;
9657;SDS011;4867;48.112;11.622;2023-03-01T01:08:57;20.97;;;17.60;;
9657;SDS011;4867;48.112;11.622;2023-03-01T01:11:25;20.90;;;18.23;;
9657;SDS011;4867;48.112;11.622;2023-03-01T01:13:54;20.87;;;17.90;;
9657;SDS011;4867;48.112;11.622;2023-03-01T01:16:22;20.97;;;18.63;;
9657;SDS011;4867;48.112;11.622;2023-03-01T01:18:51;20.53;;;17.70;;
9657;SDS011;4867;48.112;11.622;2023-03-01T01:21:19;21.07;;;18.20;;
9657;SDS011;4867;48.112;11.622;2023-03-01T01:23:50;21.87;;;18.93;;
9657;SDS011;4867;48.112;11.622;2023-03-01T01:26:22;20.57;;;18.33;;
9657;SDS011;4867;48.112;11.622;2023-03-01T01:28:51;20.37;;;17.70;;
9657;SDS011;4867;48.112;11.622;2023-03-01T01:31:20;21.07;;;18.37;;
9657;SDS011;4867;48.112;11.622;2023-03-01T01:33:50;20.07;;;18.03;;
9657;SDS011;4867;48.112;11.622;2023-03-01T01:36:18;19.83;;;17.67;;
9657;SDS011;4867;48.112;11.622;2023-03-01T01:38:45;21.27;;;19.07;;
9657;SDS011;4867;48.112;11.622;2023-03-01T01:41:13;22.13;;;18.27;;
9657;SDS011;4867;48.112;11.622;2023-03-01T01:43:41;19.67;;;17.53;;
9657;SDS011;4867;48.112;11.622;2023-03-01T01:46:30;20.67;;;18.07;;
9657;SDS011;4867;48.112;11.622;2023-03-01T01:49:03;21.53;;;17.70;;
9657;SDS011;4867;48.112;11.622;2023-03-01T01:51:37;21.30;;;18.00;;
9657;SDS011;4867;48.112;11.622;2023-03-01T01:54:10;20.23;;;18.03;;
9657;SDS011;4867;48.112;11.622;2023-03-01T01:56:41;21.43;;;18.17;;
9657;SDS011;4867;48.112;11.622;2023-03-01T01:59:11;21.10;;;18.73;;
9657;SDS011;4867;48.112;11.622;2023-03-01T02:01:39;22.27;;;18.30;;
9657;SDS011;4867;48.112;11.622;2023-03-01T02:04:06;21.03;;;18.30;;
9657;SDS011;4867;48.112;11.622;2023-03-01T02:06:34;21.07;;;18.43;;
9657;SDS011;4867;48.112;11.622;2023-03-01T02:09:11;20.77;;;18.53;;
9657;SDS011;4867;48.112;11.622;2023-03-01T02:11:40;23.23;;;18.70;;
9657;SDS011;4867;48.112;11.622;2023-03-01T02:14:09;21.07;;;18.73;;
9657;SDS011;4867;48.112;11.622;2023-03-01T02:16:37;21.40;;;18.37;;
9657;SDS011;4867;48.112;11.622;2023-03-01T02:19:04;21.47;;;19.27;;
9657;SDS011;4867;48.112;11.622;2023-03-01T02:21:56;19.97;;;17.87;;
9657;SDS011;4867;48.112;11.622;2023-03-01T02:27:17;22.23;;;18.97;;
9657;SDS011;4867;48.112;11.622;2023-03-01T02:29:51;20.30;;;18.10;;
9657;SDS011;4867;48.112;11.622;2023-03-01T02:32:18;22.33;;;17.47;;
9657;SDS011;4867;48.112;11.622;2023-03-01T02:34:54;21.37;;;17.90;;
9657;SDS011;4867;48.112;11.622;2023-03-01T02:37:23;23.07;;;17.83;;
9657;SDS011;4867;48.112;11.622;2023-03-01T02:39:53;20.23;;;17.57;;
9657;SDS011;4867;48.112;11.622;2023-03-01T02:42:26;20.23;;;17.40;;
9657;SDS011;4867;48.112;11.622;2023-03-01T02:44:58;20.47;;;18.13;;
9657;SDS011;4867;48.112;11.622;2023-03-01T02:47:25;19.87;;;17.60;;
9657;SDS011;4867;48.112;11.622;2023-03-01T02:49:52;22.70;;;18.43;;
9657;SDS011;4867;48.112;11.622;2023-03-01T02:52:26;19.93;;;17.80;;
9657;SDS011;4867;48.112;11.622;2023-03-01T02:54:59;21.07;;;18.60;;
9657;SDS011;4867;48.112;11.622;2023-03-01T02:57:40;21.10;;;18.40;;
9657;SDS011;4867;48.112;11.622;2023-03-01T03:00:15;20.77;;;18.53;;
9657;SDS011;4867;48.112;11.622;2023-03-01T03:02:50;20.33;;;18.23;;
9657;SDS011;4867;48.112;11.622;2023-03-01T03:05:22;21.83;;;17.70;;
9657;SDS011;4867;48.112;11.622;2023-03-01T03:07:55;22.70;;;19.07;;
9657;SDS011;4867;48.112;11.622;2023-03-01T03:10:24;22.00;;;19.37;;
9657;SDS011;4867;48.112;11.622;2023-03-01T03:13:00;21.43;;;18.40;;
9657;SDS011;4867;48.112;11.622;2023-03-01T03:15:32;21.67;;;17.93;;
9657;SDS011;4867;48.112;11.622;2023-03-01T03:18:03;20.67;;;17.57;;
9657;SDS011;4867;48.112;11.622;2023-03-01T03:20:33;21.57;;;18.20;;
9657;SDS011;4867;48.112;11.622;2023-03-01T03:23:01;21.00;;;17.73;;
9657;SDS011;4867;48.112;11.622;2023-03-01T03:25:28;23.03;;;18.50;;
9657;SDS011;4867;48.112;11.622;2023-03-01T03:27:56;20.43;;;17.73;;
9657;SDS011;4867;48.112;11.622;2023-03-01T03:30:25;20.93;;;18.73;;
9657;SDS011;4867;48.112;11.622;2023-03-01T03:32:54;20.07;;;17.97;;
9657;SDS011;4867;48.112;11.622;2023-03-01T03:35:30;22.40;;;18.50;;
9657;SDS011;4867;48.112;11.622;2023-03-01T03:38:00;20.17;;;17.93;;
9657;SDS011;4867;48.112;11.622;2023-03-01T03:40:37;21.50;;;18.27;;
9657;SDS011;4867;48.112;11.622;2023-03-01T03:43:09;21.53;;;18.53;;
9657;SDS011;4867;48.112;11.622;2023-03-01T03:45:39;20.47;;;18.27;;
9657;SDS011;4867;48.112;11.622;2023-03-01T03:48:07;21.20;;;18.97;;
9657;SDS011;4867;48.112;11.622;2023-03-01T03:50:37;20.93;;;18.33;;
9657;SDS011;4867;48.112;11.622;2023-03-01T03:53:06;20.90;;;18.70;;
9657;SDS011;4867;48.112;11.622;2023-03-01T03:55:35;21.50;;;18.90;;
9657;SDS011;4867;48.112;11.622;2023-03-01T03:58:06;22.80;;;18.27;;
9657;SDS011;4867;48.112;11.622;2023-03-01T04:00:39;22.30;;;19.53;;
9657;SDS011;4867;48.112;11.622;2023-03-01T04:03:07;23.53;;;20.17;;
9657;SDS011;4867;48.112;11.622;2023-03-01T04:05:36;21.63;;;19.33;;
9657;SDS011;4867;48.112;11.622;2023-03-01T04:08:04;20.83;;;18.23;;
9657;SDS011;4867;48.112;11.622;2023-03-01T04:13:05;22.40;;;19.27;;
9657;SDS011;4867;48.112;11.622;2023-03-01T04:15:33;21.30;;;19.00;;
9657;SDS011;4867;48.112;11.622;2023-03-01T04:18:00;23.37;;;19.60;;
9657;SDS011;4867;48.112;11.622;2023-03-01T04:20:30;24.43;;;19.57;;
9657;SDS011;4867;48.112;11.622;2023-03-01T04:23:04;20.73;;;18.43;;
9657;SDS011;4867;48.112;11.622;2023-03-01T04:28:30;23.57;;;19.83;;
9657;SDS011;4867;48.112;11.622;2023-03-01T04:31:03;21.80;;;19.13;;
9657;SDS011;4867;48.112;11.622;2023-03-01T04:33:40;22.90;;;19.03;;
9657;SDS011;4867;48.112;11.622;2023-03-01T04:36:12;21.97;;;19.67;;
9657;SDS011;4867;48.112;11.622;2023-03-01T04:38:41;21.77;;;19.37;;
9657;SDS011;4867;48.112;11.622;2023-03-01T04:41:09;21.87;;;19.57;;
9657;SDS011;4867;48.112;11.622;2023-03-01T04:43:37;22.40;;;19.07;;
9657;SDS011;4867;48.112;11.622;2023-03-01T04:46:05;26.53;;;20.83;;
9657;SDS011;4867;48.112;11.622;2023-03-01T04:48:39;21.93;;;19.53;;
9657;SDS011;4867;48.112;11.622;2023-03-01T04:51:07;22.77;;;19.97;;
9657;SDS011;4867;48.112;11.622;2023-03-01T04:53:35;22.03;;;19.67;;
9657;SDS011;4867;48.112;11.622;2023-03-01T04:56:03;23.17;;;19.27;;
9657;SDS011;4867;48.112;11.622;2023-03-01T04:58:31;21.57;;;19.20;;
9657;SDS011;4867;48.112;11.622;2023-03-01T05:00:58;23.30;;;19.87;;
9657;SDS011;4867;48.112;11.622;2023-03-01T05:03:25;23.23;;;19.63;;
9657;SDS011;4867;48.112;11.622;2023-03-01T05:05:53;21.83;;;19.43;;
9657;SDS011;4867;48.112;11.622;2023-03-01T05:08:20;21.40;;;19.20;;
9657;SDS011;4867;48.112;11.622;2023-03-01T05:10:51;24.77;;;20.50;;
9657;SDS011;4867;48.112;11.622;2023-03-01T05:13:19;23.33;;;19.77;;
9657;SDS011;4867;48.112;11.622;2023-03-01T05:15:48;23.07;;;19.27;;
9657;SDS011;4867;48.112;11.622;2023-03-01T05:18:21;21.93;;;19.50;;
9657;SDS011;4867;48.112;11.622;2023-03-01T05:20:53;22.10;;;19.70;;
9657;SDS011;4867;48.112;11.622;2023-03-01T05:23:31;22.47;;;20.03;;
9657;SDS011;4867;48.112;11.622;2023-03-01T05:26:00;22.10;;;19.80;;
9657;SDS011;4867;48.112;11.622;2023-03-01T05:28:29;24.30;;;20.20;;
9657;SDS011;4867;48.112;11.622;2023-03-01T05:30:57;22.63;;;20.23;;
9657;SDS011;4867;48.112;11.622;2023-03-01T05:33:25;25.17;;;21.57;;
9657;SDS011;4867;48.112;11.622;2023-03-01T05:35:52;25.03;;;21.03;;
9657;SDS011;4867;48.112;11.622;2023-03-01T05:38:20;22.97;;;19.93;;
9657;SDS011;4867;48.112;11.622;2023-03-01T05:40:49;24.37;;;20.37;;
9657;SDS011;4867;48.112;11.622;2023-03-01T05:43:16;22.17;;;19.27;;
9657;SDS011;4867;48.112;11.622;2023-03-01T05:45:44;21.70;;;19.20;;
9657;SDS011;4867;48.112;11.622;2023-03-01T05:48:12;23.47;;;19.23;;
9657;SDS011;4867;48.112;11.622;2023-03-01T05:50:41;23.67;;;19.07;;
9657;SDS011;4867;48.112;11.622;2023-03-01T05:53:11;22.07;;;19.43;;
9657;SDS011;4867;48.112;11.622;2023-03-01T05:55:40;23.73;;;20.10;;
9657;SDS011;4867;48.112;11.622;2023-03-01T05:58:09;23.40;;;20.43;;
9657;SDS011;4867;48.112;11.622;2023-03-01T06:00:41;25.37;;;20.27;;
9657;SDS011;4867;48.112;11.622;2023-03-01T06:03:10;23.00;;;20.50;;
9657;SDS011;4867;48.112;11.622;2023-03-01T06:05:38;22.87;;;20.37;;
9657;SDS011;4867;48.112;11.622;2023-03-01T06:08:08;23.07;;;20.60;;
9657;SDS011;4867;48.112;11.622;2023-03-01T06:10:36;24.10;;;20.93;;
9657;SDS011;4867;48.112;11.622;2023-03-01T06:13:03;23.73;;;20.70;;
9657;SDS011;4867;48.112;11.622;2023-03-01T06:15:31;24.60;;;20.93;;
9657;SDS011;4867;48.112;11.622;2023-03-01T06:17:58;24.40;;;21.80;;
9657;SDS011;4867;48.112;11.622;2023-03-01T06:20:27;23.97;;;20.90;;
9657;SDS011;4867;48.112;11.622;2023-03-01T06:22:55;23.63;;;20.57;;
9657;SDS011;4867;48.112;11.622;2023-03-01T06:25:24;23.90;;;20.40;;
9657;SDS011;4867;48.112;11.622;2023-03-01T06:27:53;23.07;;;20.57;;
9657;SDS011;4867;48.112;11.622;2023-03-01T06:30:20;24.53;;;20.93;;
9657;SDS011;4867;48.112;11.622;2023-03-01T06:32:49;22.43;;;19.90;;
9657;SDS011;4867;48.112;11.622;2023-03-01T06:35:17;24.73;;;19.97;;
9657;SDS011;4867;48.112;11.622;2023-03-01T06:37:45;24.40;;;20.07;;
9657;SDS011;4867;48.112;11.622;2023-03-01T06:40:14;24.27;;;20.07;;
9657;SDS011;4867;48.112;11.622;2023-03-01T06:42:42;25.30;;;20.40;;
9657;SDS011;4867;48.112;11.622;2023-03-01T06:45:10;23.87;;;20.57;;
9657;SDS011;4867;48.112;11.622;2023-03-01T06:47:38;24.73;;;21.33;;
9657;SDS011;4867;48.112;11.622;2023-03-01T06:50:05;25.27;;;21.70;;
9657;SDS011;4867;48.112;11.622;2023-03-01T06:52:32;22.70;;;19.77;;
9657;SDS011;4867;48.112;11.622;2023-03-01T06:55:00;25.60;;;20.77;;
9657;SDS011;4867;48.112;11.622;2023-03-01T06:57:27;25.30;;;20.60;;
9657;SDS011;4867;48.112;11.622;2023-03-01T06:59:54;27.93;;;21.13;;
9657;SDS011;4867;48.112;11.622;2023-03-01T07:02:21;25.50;;;22.00;;
9657;SDS011;4867;48.112;11.622;2023-03-01T07:04:50;25.93;;;20.17;;
9657;SDS011;4867;48.112;11.622;2023-03-01T07:07:18;27.60;;;21.40;;
9657;SDS011;4867;48.112;11.622;2023-03-01T07:09:45;23.93;;;21.33;;
9657;SDS011;4867;48.112;11.622;2023-03-01T07:12:13;26.93;;;20.73;;
9657;SDS011;4867;48.112;11.622;2023-03-01T07:14:40;24.63;;;21.53;;
9657;SDS011;4867;48.112;11.622;2023-03-01T07:17:07;24.83;;;20.90;;
9657;SDS011;4867;48.112;11.622;2023-03-01T07:19:35;27.40;;;20.70;;
9657;SDS011;4867;48.112;11.622;2023-03-01T07:22:03;27.90;;;20.63;;
9657;SDS011;4867;48.112;11.622;2023-03-01T07:24:31;24.80;;;20.67;;
9657;SDS011;4867;48.112;11.622;2023-03-01T07:26:58;26.30;;;20.63;;
9657;SDS011;4867;48.112;11.622;2023-03-01T07:29:25;25.03;;;20.97;;
9657;SDS011;4867;48.112;11.622;2023-03-01T07:31:52;23.60;;;20.67;;
9657;SDS011;4867;48.112;11.622;2023-03-01T07:34:19;27.73;;;21.07;;
9657;SDS011;4867;48.112;11.622;2023-03-01T07:36:47;24.30;;;20.53;;
9657;SDS011;4867;48.112;11.622;2023-03-01T07:39:14;24.43;;;20.77;;
9657;SDS011;4867;48.112;11.622;2023-03-01T07:41:44;26.77;;;20.90;;
9657;SDS011;4867;48.112;11.622;2023-03-01T07:44:11;22.80;;;20.00;;
9657;SDS011;4867;48.112;11.622;2023-03-01T07:46:38;24.87;;;20.93;;
9657;SDS011;4867;48.112;11.622;2023-03-01T07:49:05;26.07;;;20.77;;
9657;SDS011;4867;48.112;11.622;2023-03-01T07:51:32;24.47;;;20.73;;
9657;SDS011;4867;48.112;11.622;2023-03-01T07:54:00;27.03;;;21.77;;
9657;SDS011;4867;48.112;11.622;2023-03-01T07:56:27;24.63;;;21.17;;
9657;SDS011;4867;48.112;11.622;2023-03-01T07:58:55;25.57;;;20.80;;
9657;SDS011;4867;48.112;11.622;2023-03-01T08:01:22;28.90;;;21.50;;
9657;SDS011;4867;48.112;11.622;2023-03-01T08:03:50;27.83;;;21.53;;
9657;SDS011;4867;48.112;11.622;2023-03-01T08:06:17;31.13;;;22.23;;
9657;SDS011;4867;48.112;11.622;2023-03-01T08:08:45;30.00;;;22.80;;
9657;SDS011;4867;48.112;11.622;2023-03-01T08:11:13;25.67;;;21.67;;
9657;SDS011;4867;48.112;11.622;2023-03-01T08:13:41;23.00;;;20.23;;
9657;SDS011;4867;48.112;11.622;2023-03-01T08:16:11;23.97;;;20.80;;
9657;SDS011;4867;48.112;11.622;2023-03-01T08:18:39;26.10;;;20.47;;
9657;SDS011;4867;48.112;11.622;2023-03-01T08:21:11;25.07;;;21.27;;
9657;SDS011;4867;48.112;11.622;2023-03-01T08:23:41;25.23;;;20.70;;
9657;SDS011;4867;48.112;11.622;2023-03-01T08:26:16;26.33;;;21.10;;
9657;SDS011;4867;48.112;11.622;2023-03-01T08:28:45;26.70;;;21.00;;
9657;SDS011;4867;48.112;11.622;2023-03-01T08:31:20;23.43;;;20.53;;
9657;SDS011;4867;48.112;11.622;2023-03-01T08:33:54;24.37;;;20.93;;
9657;SDS011;4867;48.112;11.622;2023-03-01T08:36:23;25.57;;;20.07;;
9657;SDS011;4867;48.112;11.622;2023-03-01T08:38:59;22.17;;;19.73;;
9657;SDS011;4867;48.112;11.622;2023-03-01T08:41:27;22.67;;;19.33;;
9657;SDS011;4867;48.112;11.622;2023-03-01T08:43:54;24.30;;;20.90;;
9657;SDS011;4867;48.112;11.622;2023-03-01T08:46:33;25.83;;;21.07;;
9657;SDS011;4867;48.112;11.622;2023-03-01T08:49:15;24.53;;;21.03;;
9657;SDS011;4867;48.112;11.622;2023-03-01T08:51:44;25.50;;;21.87;;
9657;SDS011;4867;48.112;11.622;2023-03-01T08:54:14;23.10;;;20.60;;
9657;SDS011;4867;48.112;11.622;2023-03-01T08:56:46;23.80;;;20.70;;
9657;SDS011;4867;48.112;11.622;2023-03-01T08:59:14;25.33;;;21.30;;
9657;SDS011;4867;48.112;11.622;2023-03-01T09:01:44;23.30;;;20.50;;
9657;SDS011;4867;48.112;11.622;2023-03-01T09:04:12;25.20;;;20.80;;
9657;SDS011;4867;48.112;11.622;2023-03-01T09:06:40;23.70;;;20.20;;
9657;SDS011;4867;48.112;11.622;2023-03-01T09:09:15;24.03;;;20.73;;
9657;SDS011;4867;48.112;11.622;2023-03-01T09:11:44;25.60;;;20.30;;
9657;SDS011;4867;48.112;11.622;2023-03-01T09:14:13;25.27;;;21.23;;
9657;SDS011;4867;48.112;11.622;2023-03-01T09:16:40;25.40;;;21.10;;
9657;SDS011;4867;48.112;11.622;2023-03-01T09:19:08;24.47;;;20.87;;
9657;SDS011;4867;48.112;11.622;2023-03-01T09:21:35;27.90;;;21.30;;
9657;SDS011;4867;48.112;11.622;2023-03-01T09:24:09;24.77;;;21.07;;
9657;SDS011;4867;48.112;11.622;2023-03-01T09:26:41;23.40;;;20.60;;
9657;SDS011;4867;48.112;11.622;2023-03-01T09:29:09;23.87;;;20.97;;
9657;SDS011;4867;48.112;11.622;2023-03-01T09:31:36;25.43;;;20.93;;
9657;SDS011;4867;48.112;11.622;2023-03-01T09:34:04;25.00;;;20.83;;
9657;SDS011;4867;48.112;11.622;2023-03-01T09:36:32;23.97;;;21.33;;
9657;SDS011;4867;48.112;11.622;2023-03-01T09:39:00;26.67;;;21.37;;
9657;SDS011;4867;48.112;11.622;2023-03-01T09:46:59;24.00;;;21.07;;
9657;SDS011;4867;48.112;11.622;2023-03-01T09:49:29;26.70;;;21.77;;
9657;SDS011;4867;48.112;11.622;2023-03-01T09:54:46;25.77;;;20.90;;
9657;SDS011;4867;48.112;11.622;2023-03-01T10:02:39;24.63;;;21.40;;
9657;SDS011;4867;48.112;11.622;2023-03-01T10:08:33;25.03;;;22.23;;
9657;SDS011;4867;48.112;11.622;2023-03-01T10:11:32;24.20;;;21.33;;
9657;SDS011;4867;48.112;11.622;2023-03-01T10:14:05;23.37;;;20.40;;
9657;SDS011;4867;48.112;11.622;2023-03-01T10:16:51;22.77;;;19.77;;
9657;SDS011;4867;48.112;11.622;2023-03-01T10:19:27;23.40;;;19.70;;
9657;SDS011;4867;48.112;11.622;2023-03-01T10:22:04;23.47;;;20.83;;
9657;SDS011;4867;48.112;11.622;2023-03-01T10:24:50;24.37;;;20.97;;
9657;SDS011;4867;48.112;11.622;2023-03-01T10:27:41;23.23;;;20.83;;
9657;SDS011;4867;48.112;11.622;2023-03-01T10:30:16;27.53;;;22.53;;
9657;SDS011;4867;48.112;11.622;2023-03-01T10:32:53;25.97;;;20.77;;
9657;SDS011;4867;48.112;11.622;2023-03-01T10:35:22;23.23;;;20.70;;
9657;SDS011;4867;48.112;11.622;2023-03-01T10:38:09;24.27;;;20.83;;
9657;SDS011;4867;48.112;11.622;2023-03-01T10:40:59;24.93;;;20.83;;
9657;SDS011;4867;48.112;11.622;2023-03-01T10:43:48;24.20;;;20.70;;
9657;SDS011;4867;48.112;11.622;2023-03-01T10:51:47;24.50;;;21.93;;
9657;SDS011;4867;48.112;11.622;2023-03-01T10:54:17;26.60;;;22.50;;
9657;SDS011;4867;48.112;11.622;2023-03-01T10:56:57;25.67;;;22.97;;
9657;SDS011;4867;48.112;11.622;2023-03-01T10:59:29;24.30;;;21.70;;
9657;SDS011;4867;48.112;11.622;2023-03-01T11:02:13;23.97;;;21.43;;
9657;SDS011;4867;48.112;11.622;2023-03-01T11:07:46;23.40;;;20.90;;
9657;SDS011;4867;48.112;11.622;2023-03-01T11:10:37;21.80;;;19.60;;
9657;SDS011;4867;48.112;11.622;2023-03-01T11:13:07;24.47;;;21.97;;
9657;SDS011;4867;48.112;11.622;2023-03-01T11:15:42;25.20;;;22.60;;
9657;SDS011;4867;48.112;11.622;2023-03-01T11:18:24;26.13;;;22.70;;
9657;SDS011;4867;48.112;11.622;2023-03-01T11:21:11;25.47;;;22.77;;
9657;SDS011;4867;48.112;11.622;2023-03-01T11:23:39;25.80;;;23.10;;
9657;SDS011;4867;48.112;11.622;2023-03-01T11:26:09;26.37;;;22.37;;
9657;SDS011;4867;48.112;11.622;2023-03-01T11:28:39;25.30;;;22.60;;
9657;SDS011;4867;48.112;11.622;2023-03-01T11:31:10;25.27;;;22.53;;
9657;SDS011;4867;48.112;11.622;2023-03-01T11:33:49;25.80;;;23.03;;
9657;SDS011;4867;48.112;11.622;2023-03-01T11:39:02;27.03;;;23.97;;
9657;SDS011;4867;48.112;11.622;2023-03-01T11:41:38;25.50;;;22.80;;
9657;SDS011;4867;48.112;11.622;2023-03-01T11:44:14;25.40;;;22.43;;
9657;SDS011;4867;48.112;11.622;2023-03-01T11:49:19;25.27;;;22.50;;
9657;SDS011;4867;48.112;11.622;2023-03-01T11:57:49;29.20;;;23.00;;
9657;SDS011;4867;48.112;11.622;2023-03-01T12:04:06;27.20;;;22.87;;
9657;SDS011;4867;48.112;11.622;2023-03-01T12:06:40;27.93;;;23.37;;
9657;SDS011;4867;48.112;11.622;2023-03-01T12:17:51;26.17;;;22.27;;
9657;SDS011;4867;48.112;11.622;2023-03-01T12:26:24;24.90;;;22.37;;
9657;SDS011;4867;48.112;11.622;2023-03-01T12:29:20;24.53;;;21.93;;
9657;SDS011;4867;48.112;11.622;2023-03-01T12:51:32;25.43;;;22.83;;
9657;SDS011;4867;48.112;11.622;2023-03-01T12:54:05;25.60;;;22.70;;
9657;SDS011;4867;48.112;11.622;2023-03-01T12:56:40;26.43;;;23.40;;
9657;SDS011;4867;48.112;11.622;2023-03-01T13:04:29;25.80;;;22.90;;
9657;SDS011;4867;48.112;11.622;2023-03-01T13:17:49;25.77;;;23.07;;
9657;SDS011;4867;48.112;11.622;2023-03-01T13:20:24;25.43;;;22.63;;
9657;SDS011;4867;48.112;11.622;2023-03-01T13:31:05;25.70;;;23.03;;
9657;SDS011;4867;48.112;11.622;2023-03-01T13:33:41;25.73;;;22.87;;
9657;SDS011;4867;48.112;11.622;2023-03-01T13:38:57;25.13;;;22.53;;
9657;SDS011;4867;48.112;11.622;2023-03-01T13:44:51;25.87;;;23.20;;
9657;SDS011;4867;48.112;11.622;2023-03-01T13:47:14;27.80;;;24.80;;
9657;SDS011;4867;48.112;11.622;2023-03-01T13:55:05;26.83;;;24.03;;
9657;SDS011;4867;48.112;11.622;2023-03-01T13:57:54;26.57;;;23.67;;
9657;SDS011;4867;48.112;11.622;2023-03-01T14:00:25;28.17;;;24.03;;
9657;SDS011;4867;48.112;11.622;2023-03-01T14:03:02;26.97;;;23.50;;
9657;SDS011;4867;48.112;11.622;2023-03-01T14:05:38;28.53;;;24.43;;
9657;SDS011;4867;48.112;11.622;2023-03-01T14:08:20;29.67;;;26.10;;
9657;SDS011;4867;48.112;11.622;2023-03-01T14:16:36;27.00;;;24.10;;
9657;SDS011;4867;48.112;11.622;2023-03-01T14:19:21;27.23;;;24.00;;
9657;SDS011;4867;48.112;11.622;2023-03-01T14:24:40;26.63;;;23.73;;
9657;SDS011;4867;48.112;11.622;2023-03-01T14:27:14;29.13;;;25.37;;
9657;SDS011;4867;48.112;11.622;2023-03-01T14:29:42;28.83;;;24.30;;
9657;SDS011;4867;48.112;11.622;2023-03-01T14:34:49;25.17;;;22.50;;
9657;SDS011;4867;48.112;11.622;2023-03-01T14:37:22;27.03;;;23.37;;
9657;SDS011;4867;48.112;11.622;2023-03-01T14:40:00;25.00;;;21.87;;
9657;SDS011;4867;48.112;11.622;2023-03-01T14:42:36;25.37;;;22.67;;
9657;SDS011;4867;48.112;11.622;2023-03-01T14:45:03;25.50;;;22.80;;
9657;SDS011;4867;48.112;11.622;2023-03-01T14:47:34;26.10;;;22.23;;
9657;SDS011;4867;48.112;11.622;2023-03-01T14:50:24;24.40;;;21.53;;
9657;SDS011;4867;48.112;11.622;2023-03-01T14:52:55;24.70;;;21.40;;
9657;SDS011;4867;48.112;11.622;2023-03-01T14:55:27;22.87;;;20.53;;
9657;SDS011;4867;48.112;11.622;2023-03-01T14:58:12;25.63;;;20.50;;
9657;SDS011;4867;48.112;11.622;2023-03-01T15:00:57;23.80;;;21.07;;
9657;SDS011;4867;48.112;11.622;2023-03-01T15:03:36;22.17;;;19.87;;
9657;SDS011;4867;48.112;11.622;2023-03-01T15:06:07;23.80;;;20.57;;
9657;SDS011;4867;48.112;11.622;2023-03-01T15:08:35;23.80;;;21.30;;
9657;SDS011;4867;48.112;11.622;2023-03-01T15:13:48;22.93;;;20.50;;
9657;SDS011;4867;48.112;11.622;2023-03-01T15:16:20;23.33;;;20.73;;
9657;SDS011;4867;48.112;11.622;2023-03-01T15:18:57;24.37;;;21.73;;
9657;SDS011;4867;48.112;11.622;2023-03-01T15:21:31;23.37;;;20.97;;
9657;SDS011;4867;48.112;11.622;2023-03-01T15:26:52;23.50;;;21.00;;
9657;SDS011;4867;48.112;11.622;2023-03-01T15:29:29;24.07;;;21.43;;
9657;SDS011;4867;48.112;11.622;2023-03-01T15:32:04;22.90;;;20.30;;
9657;SDS011;4867;48.112;11.622;2023-03-01T15:34:36;24.20;;;21.40;;
9657;SDS011;4867;48.112;11.622;2023-03-01T15:37:05;23.70;;;20.87;;
9657;SDS011;4867;48.112;11.622;2023-03-01T15:39:55;21.57;;;19.20;;
9657;SDS011;4867;48.112;11.622;2023-03-01T15:47:47;24.37;;;20.57;;
9657;SDS011;4867;48.112;11.622;2023-03-01T15:50:32;22.90;;;20.37;;
9657;SDS011;4867;48.112;11.622;2023-03-01T15:53:04;23.53;;;21.00;;
9657;SDS011;4867;48.112;11.622;2023-03-01T15:55:33;23.50;;;19.93;;
9657;SDS011;4867;48.112;11.622;2023-03-01T15:58:03;23.97;;;20.17;;
9657;SDS011;4867;48.112;11.622;2023-03-01T16:00:36;25.73;;;20.03;;
9657;SDS011;4867;48.112;11.622;2023-03-01T16:03:12;22.57;;;19.80;;
9657;SDS011;4867;48.112;11.622;2023-03-01T16:05:39;23.80;;;20.30;;
9657;SDS011;4867;48.112;11.622;2023-03-01T16:08:07;24.37;;;20.47;;
9657;SDS011;4867;48.112;11.622;2023-03-01T16:10:34;29.07;;;20.97;;
9657;SDS011;4867;48.112;11.622;2023-03-01T16:13:02;27.87;;;21.47;;
9657;SDS011;4867;48.112;11.622;2023-03-01T16:15:30;27.07;;;21.23;;
9657;SDS011;4867;48.112;11.622;2023-03-01T16:17:59;25.00;;;20.63;;
9657;SDS011;4867;48.112;11.622;2023-03-01T16:20:27;28.20;;;20.87;;
9657;SDS011;4867;48.112;11.622;2023-03-01T16:23:03;21.80;;;19.50;;
9657;SDS011;4867;48.112;11.622;2023-03-01T16:25:33;22.60;;;19.37;;
9657;SDS011;4867;48.112;11.622;2023-03-01T16:28:01;23.57;;;20.07;;
9657;SDS011;4867;48.112;11.622;2023-03-01T16:30:31;24.17;;;20.50;;
9657;SDS011;4867;48.112;11.622;2023-03-01T16:33:03;22.27;;;19.67;;
9657;SDS011;4867;48.112;11.622;2023-03-01T16:35:50;22.70;;;20.10;;
9657;SDS011;4867;48.112;11.622;2023-03-01T16:38:18;22.83;;;20.43;;
9657;SDS011;4867;48.112;11.622;2023-03-01T16:40:49;22.60;;;20.30;;
9657;SDS011;4867;48.112;11.622;2023-03-01T16:43:17;25.07;;;20.47;;
9657;SDS011;4867;48.112;11.622;2023-03-01T16:45:44;24.07;;;20.67;;
9657;SDS011;4867;48.112;11.622;2023-03-01T16:48:13;25.37;;;22.67;;
9657;SDS011;4867;48.112;11.622;2023-03-01T16:50:40;26.43;;;22.37;;
9657;SDS011;4867;48.112;11.622;2023-03-01T16:53:07;27.13;;;22.77;;
9657;SDS011;4867;48.112;11.622;2023-03-01T16:55:35;32.20;;;25.10;;
9657;SDS011;4867;48.112;11.622;2023-03-01T16:58:02;36.33;;;28.80;;
9657;SDS011;4867;48.112;11.622;2023-03-01T17:00:30;35.57;;;30.23;;
9657;SDS011;4867;48.112;11.622;2023-03-01T17:02:57;33.13;;;27.13;;
9657;SDS011;4867;48.112;11.622;2023-03-01T17:05:25;31.57;;;27.77;;
9657;SDS011;4867;48.112;11.622;2023-03-01T17:07:52;33.57;;;27.80;;
9657;SDS011;4867;48.112;11.622;2023-03-01T17:10:22;32.57;;;28.33;;
9657;SDS011;4867;48.112;11.622;2023-03-01T17:12:49;32.43;;;28.00;;
9657;SDS011;4867;48.112;11.622;2023-03-01T17:15:16;33.53;;;29.23;;
9657;SDS011;4867;48.112;11.622;2023-03-01T17:17:44;33.30;;;28.23;;
9657;SDS011;4867;48.112;11.622;2023-03-01T17:20:11;34.03;;;28.57;;